createdAt,value
2018-07-16T00:00:52.490Z,4.57
2018-07-16T00:03:21.992Z,4.50
2018-07-16T00:05:51.539Z,4.80
2018-07-16T00:08:21.000Z,4.67
2018-07-16T00:10:50.504Z,4.67
2018-07-16T00:13:19.608Z,4.60
2018-07-16T00:15:49.515Z,4.63
2018-07-16T00:18:19.070Z,4.40
2018-07-16T00:20:48.933Z,4.30
2018-07-16T00:23:19.548Z,4.43
2018-07-16T00:25:49.579Z,4.40
2018-07-16T00:28:19.076Z,4.73
2018-07-16T00:30:48.579Z,4.57
2018-07-16T00:33:18.104Z,4.33
2018-07-16T00:35:47.856Z,4.47
2018-07-16T00:38:17.525Z,4.40
2018-07-16T00:40:47.045Z,4.43
2018-07-16T00:43:16.997Z,5.00
2018-07-16T00:45:46.461Z,4.83
2018-07-16T00:48:16.193Z,4.57
2018-07-16T00:50:46.353Z,4.80
2018-07-16T00:53:16.052Z,4.70
2018-07-16T00:55:45.726Z,4.90
2018-07-16T00:58:15.231Z,4.77
2018-07-16T01:00:44.873Z,4.50
2018-07-16T01:03:14.465Z,5.10
2018-07-16T01:05:43.120Z,4.80
2018-07-16T01:08:11.782Z,4.97
2018-07-16T01:10:40.550Z,5.00
2018-07-16T01:13:10.193Z,4.73
2018-07-16T01:15:39.919Z,5.13
2018-07-16T01:18:08.790Z,4.80
2018-07-16T01:20:37.460Z,5.13
2018-07-16T01:23:06.276Z,5.13
2018-07-16T01:25:35.038Z,5.23
2018-07-16T01:28:03.788Z,4.90
2018-07-16T01:30:33.467Z,5.13
2018-07-16T01:33:03.383Z,4.87
2018-07-16T01:35:32.150Z,5.27
2018-07-16T01:38:00.823Z,5.47
2018-07-16T01:40:29.496Z,5.40
2018-07-16T01:42:58.169Z,5.43
2018-07-16T01:45:26.896Z,5.33
2018-07-16T01:47:55.561Z,5.43
2018-07-16T01:50:24.978Z,5.30
2018-07-16T01:52:54.541Z,5.67
2018-07-16T01:55:23.297Z,5.70
2018-07-16T01:57:51.961Z,5.33
2018-07-16T02:00:20.872Z,5.87
2018-07-16T02:02:49.563Z,5.63
2018-07-16T02:05:18.237Z,5.23
2018-07-16T02:07:46.912Z,5.43
2018-07-16T02:10:15.653Z,5.23
2018-07-16T02:12:45.243Z,5.47
2018-07-16T02:15:13.906Z,5.57
2018-07-16T02:17:42.581Z,5.53
2018-07-16T02:20:11.288Z,5.03
2018-07-16T02:22:40.071Z,5.47
2018-07-16T02:25:09.173Z,5.33
2018-07-16T02:27:37.982Z,5.70
2018-07-16T02:30:06.739Z,5.27
2018-07-16T02:32:35.592Z,5.30
2018-07-16T02:35:04.387Z,5.63
2018-07-16T02:37:33.020Z,5.43
2018-07-16T02:40:01.697Z,5.37
2018-07-16T02:42:30.342Z,5.00
2018-07-16T02:44:59.017Z,5.33
2018-07-16T02:47:27.672Z,5.40
2018-07-16T02:49:56.436Z,5.33
2018-07-16T02:52:25.836Z,5.33
2018-07-16T02:54:54.529Z,5.17
2018-07-16T02:57:23.184Z,5.43
2018-07-16T02:59:51.907Z,5.20
2018-07-16T03:02:20.638Z,5.17
2018-07-16T03:04:49.602Z,5.30
2018-07-16T03:07:18.395Z,5.20
2018-07-16T03:09:47.224Z,5.10
2018-07-16T03:12:15.916Z,5.00
2018-07-16T03:14:44.570Z,4.70
2018-07-16T03:17:13.439Z,4.80
2018-07-16T03:19:43.008Z,4.90
2018-07-16T03:22:11.786Z,4.27
2018-07-16T03:24:40.435Z,4.33
2018-07-16T03:27:09.118Z,4.27
2018-07-16T03:29:37.868Z,4.07
2018-07-16T03:32:06.715Z,4.10
2018-07-16T03:34:36.490Z,3.77
2018-07-16T03:37:05.201Z,4.27
2018-07-16T03:39:33.921Z,4.00
2018-07-16T03:42:02.594Z,3.97
2018-07-16T03:44:31.369Z,3.83
2018-07-16T03:47:00.016Z,4.10
2018-07-16T03:49:28.744Z,4.00
2018-07-16T03:51:58.279Z,4.30
2018-07-16T03:54:26.943Z,4.10
2018-07-16T03:56:56.632Z,4.30
2018-07-16T03:59:25.292Z,4.20
2018-07-16T04:01:53.989Z,4.00
2018-07-16T04:04:22.628Z,3.90
2018-07-16T04:06:52.567Z,3.60
2018-07-16T04:09:22.072Z,4.00
2018-07-16T04:11:50.731Z,3.22
2018-07-16T04:14:19.366Z,3.52
2018-07-16T04:16:48.011Z,3.42
2018-07-16T04:19:17.208Z,3.33
2018-07-16T04:21:47.409Z,3.42
2018-07-16T04:24:16.049Z,3.50
2018-07-16T04:26:44.742Z,3.40
2018-07-16T04:29:14.831Z,3.47
2018-07-16T04:31:43.583Z,3.47
2018-07-16T04:34:12.318Z,3.30
2018-07-16T04:36:40.994Z,3.30
2018-07-16T04:39:09.651Z,3.50
2018-07-16T04:41:38.331Z,3.27
2018-07-16T04:44:08.290Z,3.65
2018-07-16T04:46:36.929Z,3.42
2018-07-16T04:49:05.748Z,3.67
2018-07-16T04:51:34.490Z,3.77
2018-07-16T04:54:03.190Z,3.58
2018-07-16T04:56:31.827Z,3.83
2018-07-16T04:59:00.521Z,3.50
2018-07-16T05:01:29.255Z,3.60
2018-07-16T05:03:58.064Z,3.67
2018-07-16T05:06:27.928Z,3.60
2018-07-16T05:08:56.725Z,3.75
2018-07-16T05:11:25.419Z,3.52
2018-07-16T05:13:55.265Z,3.40
2018-07-16T05:16:25.180Z,3.30
2018-07-16T05:18:53.908Z,3.52
2018-07-16T05:21:23.404Z,3.33
2018-07-16T05:23:52.114Z,3.30
2018-07-16T05:26:20.928Z,3.77
2018-07-16T05:28:50.494Z,3.58
2018-07-16T05:31:19.148Z,3.22
2018-07-16T05:33:48.863Z,3.50
2018-07-16T05:36:17.674Z,3.40
2018-07-16T05:38:47.012Z,3.60
2018-07-16T05:41:16.976Z,3.55
2018-07-16T05:43:45.692Z,3.80
2018-07-16T05:46:14.362Z,3.62
2018-07-16T05:48:43.033Z,3.42
2018-07-16T05:51:11.707Z,3.50
2018-07-16T05:53:41.249Z,3.60
2018-07-16T05:56:09.856Z,3.70
2018-07-16T05:58:39.933Z,3.70
2018-07-16T06:01:09.707Z,3.58
2018-07-16T06:03:38.371Z,3.70
2018-07-16T06:06:07.024Z,3.62
2018-07-16T06:08:36.845Z,3.63
2018-07-16T06:11:05.536Z,4.10
2018-07-16T06:13:34.217Z,3.90
2018-07-16T06:16:02.910Z,4.17
2018-07-16T06:18:31.589Z,3.93
2018-07-16T06:21:00.247Z,4.00
2018-07-16T06:23:29.010Z,4.03
2018-07-16T06:25:57.681Z,3.70
2018-07-16T06:28:26.314Z,3.67
2018-07-16T06:30:54.983Z,3.90
2018-07-16T06:33:23.642Z,4.00
2018-07-16T06:35:52.440Z,4.23
2018-07-16T06:38:21.095Z,3.50
2018-07-16T06:40:50.050Z,3.70
2018-07-16T06:43:18.498Z,3.40
2018-07-16T06:45:48.145Z,3.63
2018-07-16T06:48:16.869Z,3.90
2018-07-16T06:50:45.520Z,3.70
2018-07-16T06:53:14.357Z,3.80
2018-07-16T06:55:43.308Z,3.83
2018-07-16T06:58:12.006Z,3.80
2018-07-16T07:00:40.733Z,3.80
2018-07-16T07:03:09.607Z,3.40
2018-07-16T07:05:39.572Z,3.33
2018-07-16T07:08:08.388Z,3.63
2018-07-16T07:10:37.841Z,3.43
2018-07-16T07:13:07.336Z,3.30
2018-07-16T07:15:36.013Z,3.33
2018-07-16T07:18:05.964Z,3.43
2018-07-16T07:20:34.744Z,3.40
2018-07-16T07:23:03.425Z,3.00
2018-07-16T07:25:32.941Z,3.30
2018-07-16T07:28:02.546Z,3.30
2018-07-16T07:30:32.092Z,3.50
2018-07-16T07:33:02.191Z,3.30
2018-07-16T07:35:32.503Z,2.73
2018-07-16T07:38:01.183Z,2.70
2018-07-16T07:40:29.799Z,3.20
2018-07-16T07:42:58.487Z,2.40
2018-07-16T07:45:27.223Z,2.93
2018-07-16T07:47:55.863Z,2.40
2018-07-16T07:50:25.865Z,2.50
2018-07-16T07:52:55.325Z,2.70
2018-07-16T07:55:25.749Z,2.60
2018-07-16T07:57:55.116Z,2.30
2018-07-16T08:00:24.904Z,1.60
2018-07-16T08:02:54.484Z,2.70
2018-07-16T08:05:24.104Z,1.90
2018-07-16T08:07:53.602Z,2.50
2018-07-16T08:10:23.333Z,1.77
2018-07-16T08:12:52.902Z,1.60
2018-07-16T08:15:23.479Z,2.00
2018-07-16T08:17:52.889Z,1.40
2018-07-16T08:20:22.345Z,1.40
2018-07-16T08:22:52.097Z,1.50
2018-07-16T08:25:22.009Z,1.10
2018-07-16T08:27:51.930Z,1.57
2018-07-16T08:30:21.856Z,1.57
2018-07-16T08:32:51.800Z,1.60
2018-07-16T08:35:21.664Z,1.60
2018-07-16T08:37:51.938Z,1.70
2018-07-16T08:40:21.686Z,1.80
2018-07-16T08:42:51.219Z,1.83
2018-07-16T08:45:20.704Z,1.97
2018-07-16T08:47:50.207Z,1.80
2018-07-16T08:50:19.724Z,1.77
2018-07-16T08:52:49.315Z,1.97
2018-07-16T08:55:18.823Z,1.90
2018-07-16T08:57:48.308Z,1.90
2018-07-16T09:00:18.093Z,1.93
2018-07-16T09:02:47.682Z,1.83
2018-07-16T09:05:17.127Z,1.73
2018-07-16T09:07:46.765Z,1.83
2018-07-16T09:10:16.157Z,1.80
2018-07-16T09:12:45.643Z,1.87
2018-07-16T09:15:14.766Z,2.10
2018-07-16T09:17:44.782Z,1.90
2018-07-16T09:20:14.590Z,2.00
2018-07-16T09:22:44.501Z,2.20
2018-07-16T09:25:14.020Z,2.00
2018-07-16T09:27:43.552Z,2.17
2018-07-16T09:30:13.137Z,1.90
2018-07-16T09:32:42.557Z,2.20
2018-07-16T09:35:12.165Z,2.17
2018-07-16T09:37:41.747Z,2.33
2018-07-16T09:40:11.496Z,2.10
2018-07-16T09:42:40.950Z,2.20
2018-07-16T09:45:10.462Z,2.50
2018-07-16T09:47:40.175Z,2.80
2018-07-16T09:50:09.898Z,2.70
2018-07-16T09:52:39.916Z,2.33
2018-07-16T09:55:08.827Z,2.67
2018-07-16T09:57:38.810Z,2.47
2018-07-16T10:00:08.721Z,2.80
2018-07-16T10:02:38.619Z,2.87
2018-07-16T10:05:08.515Z,2.70
2018-07-16T10:07:38.031Z,2.70
2018-07-16T10:10:07.776Z,3.30
2018-07-16T10:12:37.588Z,2.93
2018-07-16T10:15:07.374Z,2.80
2018-07-16T10:17:37.356Z,2.47
2018-07-16T10:21:36.549Z,2.70
2018-07-16T10:24:06.422Z,3.10
2018-07-16T10:26:35.529Z,2.90
2018-07-16T10:29:05.328Z,2.90
2018-07-16T10:31:34.628Z,2.90
2018-07-16T10:34:04.043Z,2.97
2018-07-16T10:36:33.532Z,2.67
2018-07-16T10:39:02.749Z,2.90
2018-07-16T10:41:32.558Z,2.83
2018-07-16T10:44:02.461Z,2.87
2018-07-16T10:46:32.504Z,2.60
2018-07-16T10:49:02.297Z,2.92
2018-07-16T10:51:32.346Z,2.95
2018-07-16T10:54:01.761Z,2.80
2018-07-16T10:56:31.503Z,2.87
2018-07-16T10:59:00.753Z,2.55
2018-07-16T11:01:30.657Z,3.00
2018-07-16T11:04:00.565Z,2.70
2018-07-16T11:06:30.298Z,2.70
2018-07-16T11:09:00.341Z,2.50
2018-07-16T11:11:30.228Z,2.62
2018-07-16T11:14:00.103Z,2.72
2018-07-16T11:16:29.963Z,3.10
2018-07-16T11:19:00.011Z,2.80
2018-07-16T11:21:29.519Z,2.77
2018-07-16T11:23:59.358Z,2.60
2018-07-16T11:26:29.296Z,2.67
2018-07-16T11:28:59.116Z,2.60
2018-07-16T11:31:28.810Z,2.52
2018-07-16T11:33:58.530Z,2.67
2018-07-16T11:36:28.451Z,2.60
2018-07-16T11:38:58.180Z,2.70
2018-07-16T11:41:27.625Z,2.90
2018-07-16T11:43:56.722Z,2.70
2018-07-16T11:46:26.762Z,2.77
2018-07-16T11:48:56.405Z,2.70
2018-07-16T11:51:26.339Z,2.87
2018-07-16T11:53:56.396Z,2.83
2018-07-16T11:56:26.308Z,2.60
2018-07-16T11:58:56.277Z,2.50
2018-07-16T12:01:25.978Z,2.60
2018-07-16T12:03:55.207Z,2.55
2018-07-16T12:06:25.470Z,2.90
2018-07-16T12:08:55.416Z,2.70
2018-07-16T12:11:25.227Z,2.92
2018-07-16T12:13:54.976Z,2.50
2018-07-16T12:16:24.401Z,2.50
2018-07-16T12:18:53.887Z,3.00
2018-07-16T12:21:23.640Z,2.75
2018-07-16T12:23:53.551Z,2.58
2018-07-16T12:26:23.478Z,2.80
2018-07-16T12:28:53.419Z,2.65
2018-07-16T12:31:23.342Z,2.77
2018-07-16T12:33:53.540Z,2.67
2018-07-16T12:36:23.319Z,2.77
2018-07-16T12:38:53.233Z,2.90
2018-07-16T12:41:22.811Z,2.47
2018-07-16T12:43:52.248Z,2.70
2018-07-16T12:46:21.737Z,3.00
2018-07-16T12:48:51.475Z,2.92
2018-07-16T12:51:21.560Z,2.62
2018-07-16T12:53:50.701Z,2.87
2018-07-16T12:56:20.586Z,2.80
2018-07-16T12:58:50.485Z,2.90
2018-07-16T13:01:20.417Z,2.80
2018-07-16T13:03:50.438Z,3.00
2018-07-16T13:06:22.660Z,2.72
2018-07-16T13:08:53.438Z,2.60
2018-07-16T13:11:22.949Z,2.60
2018-07-16T13:13:52.036Z,2.60
2018-07-16T13:16:21.982Z,3.00
2018-07-16T13:18:51.715Z,2.47
2018-07-16T13:21:21.390Z,3.08
2018-07-16T13:23:51.109Z,2.90
2018-07-16T13:26:21.330Z,2.75
2018-07-16T13:28:51.108Z,2.83
2018-07-16T13:31:21.257Z,2.75
2018-07-16T13:33:51.191Z,3.20
2018-07-16T13:36:21.003Z,2.92
2018-07-16T13:38:50.344Z,2.90
2018-07-16T13:41:19.856Z,2.90
2018-07-16T13:43:49.626Z,3.00
2018-07-16T13:46:19.554Z,2.80
2018-07-16T13:48:49.659Z,2.80
2018-07-16T13:51:18.758Z,3.22
2018-07-16T13:53:48.638Z,2.95
2018-07-16T13:56:18.161Z,3.00
2018-07-16T13:58:48.058Z,2.85
2018-07-16T14:01:17.522Z,3.00
2018-07-16T14:03:47.046Z,3.00
2018-07-16T14:06:16.562Z,3.20
2018-07-16T14:08:45.302Z,3.20
2018-07-16T14:11:14.874Z,3.00
2018-07-16T14:13:43.556Z,3.00
2018-07-16T14:16:13.262Z,3.20
2018-07-16T14:18:41.945Z,3.15
2018-07-16T14:21:10.651Z,3.45
2018-07-16T14:23:39.492Z,3.05
2018-07-16T14:26:08.924Z,3.10
2018-07-16T14:28:37.773Z,3.30
2018-07-16T14:31:06.485Z,3.30
2018-07-16T14:33:35.184Z,3.08
2018-07-16T14:36:03.894Z,3.47
2018-07-16T14:38:33.993Z,3.58
2018-07-16T14:41:02.727Z,3.58
2018-07-16T14:43:31.453Z,3.80
2018-07-16T14:46:00.115Z,3.47
2018-07-16T14:48:29.970Z,3.83
2018-07-16T14:50:58.785Z,3.40
2018-07-16T14:53:28.138Z,3.75
2018-07-16T14:55:56.817Z,3.60
2018-07-16T14:58:25.578Z,3.70
2018-07-16T15:00:54.993Z,3.85
2018-07-16T15:03:23.739Z,3.65
2018-07-16T15:05:52.409Z,3.50
2018-07-16T15:08:21.024Z,3.95
2018-07-16T15:10:49.730Z,3.47
2018-07-16T15:13:19.392Z,3.70
2018-07-16T15:15:48.042Z,3.80
2018-07-16T15:18:16.651Z,3.77
2018-07-16T15:20:45.743Z,3.60
2018-07-16T15:23:14.217Z,3.90
2018-07-16T15:25:42.895Z,3.77
2018-07-16T15:28:12.254Z,3.87
2018-07-16T15:30:40.951Z,3.75
2018-07-16T15:33:10.760Z,3.60
2018-07-16T15:35:39.432Z,3.75
2018-07-16T15:38:09.012Z,3.63
2018-07-16T15:40:38.623Z,3.60
2018-07-16T15:43:08.042Z,3.60
2018-07-16T15:45:38.087Z,3.80
2018-07-16T15:48:06.896Z,3.60
2018-07-16T15:50:36.586Z,3.40
2018-07-16T15:53:05.270Z,3.35
2018-07-16T15:55:34.040Z,3.65
2018-07-16T15:58:02.667Z,3.37
2018-07-16T16:00:32.369Z,3.30
2018-07-16T16:03:01.033Z,3.60
2018-07-16T16:05:31.224Z,3.50
2018-07-16T16:07:59.899Z,3.43
2018-07-16T16:10:28.625Z,3.73
2018-07-16T16:12:57.347Z,3.43
2018-07-16T16:15:27.115Z,3.70
2018-07-16T16:17:55.782Z,3.60
2018-07-16T16:20:24.539Z,3.50
2018-07-16T16:22:53.217Z,3.40
2018-07-16T16:25:21.898Z,3.63
2018-07-16T16:27:50.733Z,3.80
2018-07-16T16:30:19.591Z,3.40
2018-07-16T16:32:49.588Z,3.63
2018-07-16T16:35:19.644Z,3.87
2018-07-16T16:37:48.337Z,3.63
2018-07-16T16:40:17.646Z,3.60
2018-07-16T16:42:46.340Z,3.60
2018-07-16T16:45:15.169Z,3.77
2018-07-16T16:47:43.834Z,4.17
2018-07-16T16:50:13.627Z,3.57
2018-07-16T16:52:43.247Z,3.80
2018-07-16T16:55:11.969Z,4.30
2018-07-16T16:57:40.606Z,4.00
2018-07-16T17:00:10.474Z,3.90
2018-07-16T17:02:44.438Z,3.97
2018-07-16T17:05:15.424Z,3.77
2018-07-16T17:07:44.065Z,3.80
2018-07-16T17:10:13.756Z,3.80
2018-07-16T17:12:42.417Z,3.67
2018-07-16T17:15:11.099Z,3.50
2018-07-16T17:17:39.843Z,3.80
2018-07-16T17:20:08.566Z,3.83
2018-07-16T17:22:37.254Z,3.67
2018-07-16T17:25:06.282Z,3.80
2018-07-16T17:27:34.974Z,3.98
2018-07-16T17:30:03.869Z,3.70
2018-07-16T17:32:32.667Z,3.60
2018-07-16T17:35:01.519Z,3.83
2018-07-16T17:37:30.172Z,3.83
2018-07-16T17:39:58.837Z,3.80
2018-07-16T17:42:28.740Z,3.90
2018-07-16T17:44:57.464Z,4.00
2018-07-16T17:47:26.097Z,3.80
2018-07-16T17:49:54.982Z,3.90
2018-07-16T17:52:23.675Z,3.87
2018-07-16T17:54:52.365Z,4.13
2018-07-16T17:57:21.047Z,3.83
2018-07-16T17:59:49.741Z,4.03
2018-07-16T18:02:18.449Z,4.17
2018-07-16T18:04:47.960Z,4.10
2018-07-16T18:07:20.627Z,4.00
2018-07-16T18:09:50.596Z,4.00
2018-07-16T18:12:19.366Z,3.90
2018-07-16T18:14:49.452Z,4.30
2018-07-16T18:17:18.132Z,3.93
2018-07-16T18:19:46.927Z,4.17
2018-07-16T18:22:15.598Z,4.10
2018-07-16T18:24:44.270Z,4.03
2018-07-16T18:27:13.112Z,4.03
2018-07-16T18:29:41.813Z,4.10
2018-07-16T18:32:10.486Z,4.00
2018-07-16T18:34:40.434Z,4.00
2018-07-16T18:37:10.224Z,4.03
2018-07-16T18:39:38.921Z,4.10
2018-07-16T18:42:07.656Z,4.30
2018-07-16T18:44:37.362Z,3.73
2018-07-16T18:47:07.085Z,4.00
2018-07-16T18:49:35.996Z,3.80
2018-07-16T18:52:05.883Z,3.40
2018-07-16T18:54:35.812Z,3.70
2018-07-16T18:57:04.465Z,3.80
2018-07-16T18:59:33.093Z,4.03
2018-07-16T19:05:34.116Z,3.80
2018-07-16T19:08:02.811Z,4.37
2018-07-16T19:10:31.462Z,4.10
2018-07-16T19:13:00.127Z,4.00
2018-07-16T19:15:28.867Z,4.10
2018-07-16T19:17:58.189Z,3.90
2018-07-16T19:20:27.931Z,4.00
2018-07-16T19:22:56.598Z,4.00
2018-07-16T19:25:25.323Z,4.13
2018-07-16T19:27:54.016Z,4.40
2018-07-16T19:30:22.789Z,4.10
2018-07-16T19:32:51.514Z,4.20
2018-07-16T19:35:23.424Z,4.20
2018-07-16T19:37:53.219Z,3.90
2018-07-16T19:40:21.927Z,4.20
2018-07-16T19:42:51.601Z,4.20
2018-07-16T19:45:20.273Z,4.00
2018-07-16T19:47:50.272Z,4.10
2018-07-16T19:50:18.910Z,4.33
2018-07-16T19:52:47.556Z,4.00
2018-07-16T19:55:16.383Z,4.40
2018-07-16T19:57:45.003Z,4.10
2018-07-16T20:00:13.716Z,4.40
2018-07-16T20:02:43.709Z,3.90
2018-07-16T20:05:13.123Z,4.10
2018-07-16T20:07:42.221Z,4.20
2018-07-16T20:10:10.933Z,4.50
2018-07-16T20:12:40.406Z,4.20
2018-07-16T20:15:09.966Z,3.83
2018-07-16T20:17:38.822Z,4.00
2018-07-16T20:20:09.907Z,4.37
2018-07-16T20:22:39.768Z,4.23
2018-07-16T20:25:08.827Z,4.57
2018-07-16T20:27:37.684Z,4.50
2018-07-16T20:30:08.768Z,4.43
2018-07-16T20:32:38.902Z,4.50
2018-07-16T20:35:07.718Z,4.37
2018-07-16T20:37:36.880Z,4.70
2018-07-16T20:40:05.666Z,4.20
2018-07-16T20:42:34.343Z,3.90
2018-07-16T20:45:04.287Z,4.37
2018-07-16T20:47:33.720Z,4.50
2018-07-16T20:50:02.428Z,4.00
2018-07-16T20:52:32.160Z,4.00
2018-07-16T20:55:00.843Z,4.47
2018-07-16T20:57:29.596Z,4.27
2018-07-16T20:59:58.295Z,4.27
2018-07-16T21:02:26.963Z,4.53
2018-07-16T21:04:55.599Z,4.20
2018-07-16T21:07:24.393Z,3.97
2018-07-16T21:09:53.894Z,4.33
2018-07-16T21:12:23.638Z,4.17
2018-07-16T21:14:52.284Z,4.70
2018-07-16T21:17:21.199Z,4.97
2018-07-16T21:19:49.939Z,4.57
2018-07-16T21:22:18.646Z,4.27
2018-07-16T21:24:47.323Z,4.43
2018-07-16T21:27:16.171Z,4.50
2018-07-16T21:29:44.832Z,4.47
2018-07-16T21:32:13.525Z,4.70
2018-07-16T21:34:43.021Z,4.47
2018-07-16T21:37:12.954Z,4.60
2018-07-16T21:39:42.894Z,4.60
2018-07-16T21:42:12.768Z,4.63
2018-07-16T21:44:41.406Z,4.57
2018-07-16T21:47:11.121Z,4.80
2018-07-16T21:49:40.696Z,5.13
2018-07-16T21:52:09.363Z,4.70
2018-07-16T21:54:38.169Z,4.50
2018-07-16T21:57:07.735Z,4.80
2018-07-16T21:59:36.372Z,4.67
2018-07-16T22:02:05.165Z,4.97
2018-07-16T22:04:33.842Z,5.10
2018-07-16T22:07:02.667Z,4.80
2018-07-16T22:09:32.010Z,4.90
2018-07-16T22:12:00.839Z,4.90
2018-07-16T22:14:29.851Z,4.73
2018-07-16T22:16:58.645Z,5.07
2018-07-16T22:19:27.351Z,5.00
2018-07-16T22:21:57.515Z,5.13
2018-07-16T22:24:27.414Z,5.03
2018-07-16T22:26:57.605Z,4.93
2018-07-16T22:29:27.538Z,5.17
2018-07-16T22:31:57.587Z,5.50
2018-07-16T22:34:27.027Z,6.80
2018-07-16T22:36:55.739Z,8.57
2018-07-16T22:39:25.718Z,8.20
2018-07-16T22:41:55.424Z,7.33
2018-07-16T22:44:25.181Z,6.80
2018-07-16T22:46:54.559Z,6.30
2018-07-16T22:49:24.224Z,6.60
2018-07-16T22:51:53.693Z,6.50
2018-07-16T22:54:23.080Z,6.13
2018-07-16T22:56:52.625Z,6.30
2018-07-16T22:59:22.359Z,6.10
2018-07-16T23:01:52.034Z,6.17
2018-07-16T23:04:22.403Z,6.30
2018-07-16T23:06:51.887Z,6.50
2018-07-16T23:09:21.344Z,6.57
2018-07-16T23:11:51.272Z,5.83
2018-07-16T23:14:21.240Z,5.80
2018-07-16T23:16:51.272Z,5.83
2018-07-16T23:19:20.922Z,5.77
2018-07-16T23:21:50.527Z,6.20
2018-07-16T23:24:19.660Z,6.13
2018-07-16T23:26:49.568Z,6.10
2018-07-16T23:29:19.424Z,6.30
2018-07-16T23:31:48.993Z,6.20
2018-07-16T23:34:18.824Z,5.73
2018-07-16T23:36:48.766Z,6.00
2018-07-16T23:39:18.286Z,5.90
2018-07-16T23:41:47.522Z,6.23
2018-07-16T23:44:17.313Z,6.07
2018-07-16T23:46:47.174Z,6.13
2018-07-16T23:49:16.767Z,6.40
2018-07-16T23:51:46.280Z,6.30
2018-07-16T23:54:15.778Z,6.33
2018-07-16T23:56:45.242Z,5.87
2018-07-16T23:59:15.187Z,6.53
